Time;durP1;ratioP1;P1;durP2;ratioP2;P2;SDS_P1;SDS_P2;PMS_P1;PMS_P2;Temp;Humidity;BMP_temperature;BMP_pressure;BME280_temperature;BME280_humidity;BME280_pressure;Samples;Min_cycle;Max_cycle;Signal;HPM_P1;HPM_P2
2021/06/04 00:01:31;;;;;;;6.03;4.50;;;20.60;55.00;;;;;;5025409;28;20045;-70
2021/06/04 00:04:15;;;;;;;7.75;4.63;;;20.60;55.00;;;;;;5009123;28;20325;-70
2021/06/04 00:06:59;;;;;;;6.53;5.10;;;20.50;55.00;;;;;;5030334;28;20111;-70
2021/06/04 00:09:43;;;;;;;8.13;4.82;;;20.50;55.20;;;;;;5016594;28;20064;-69
2021/06/04 00:12:27;;;;;;;6.10;4.50;;;20.50;55.20;;;;;;4992888;28;20089;-69
2021/06/04 00:15:16;;;;;;;8.82;4.55;;;20.40;55.40;;;;;;5010552;28;20057;-70
2021/06/04 00:18:00;;;;;;;6.38;4.70;;;20.40;55.50;;;;;;5011400;28;20445;-69
2021/06/04 00:20:44;;;;;;;6.63;4.17;;;20.40;55.70;;;;;;5007115;28;20564;-70
2021/06/04 00:23:16;;;;;;;5.32;4.30;;;20.40;55.90;;;;;;4999220;28;20455;-70
2021/06/04 00:26:00;;;;;;;5.88;5.13;;;20.40;55.80;;;;;;5025838;28;20039;-70
2021/06/04 00:28:44;;;;;;;6.60;4.85;;;20.30;55.80;;;;;;5023547;28;20045;-70
2021/06/04 00:31:29;;;;;;;6.68;4.78;;;20.30;55.80;;;;;;5028852;28;20084;-69
2021/06/04 00:34:14;;;;;;;;;;;20.30;55.90;;;;;;5002367;28;20048;-69
2021/06/04 00:36:59;;;;;;;6.50;4.50;;;20.30;55.60;;;;;;4996435;28;20433;-69
2021/06/04 00:39:42;;;;;;;6.95;4.70;;;20.20;56.10;;;;;;5019627;28;20322;-69
2021/06/04 00:42:33;;;;;;;7.37;5.20;;;20.20;56.10;;;;;;4991899;28;20398;-69
2021/06/04 00:45:24;;;;;;;6.90;4.65;;;20.20;56.30;;;;;;5019803;28;20411;-69
2021/06/04 00:48:10;;;;;;;5.50;4.60;;;20.20;56.40;;;;;;5014523;28;20128;-69
2021/06/04 00:51:03;;;;;;;7.43;5.03;;;20.20;57.10;;;;;;5025278;28;20080;-69
2021/06/04 00:53:49;;;;;;;6.50;4.70;;;20.10;56.70;;;;;;5016544;28;20506;-70
2021/06/04 00:56:34;;;;;;;5.90;4.90;;;20.10;56.60;;;;;;5019089;28;20567;-70
2021/06/04 00:59:26;;;;;;;6.68;4.68;;;20.10;56.80;;;;;;5002885;28;20135;-70
2021/06/04 01:02:15;;;;;;;5.60;4.53;;;20.10;56.80;;;;;;4992504;28;20080;-70
2021/06/04 01:04:59;;;;;;;4.93;4.22;;;20.00;57.00;;;;;;5007119;28;20544;-70
2021/06/04 01:08:11;;;;;;;5.75;4.53;;;20.10;57.10;;;;;;5001837;28;20101;-70
2021/06/04 01:11:24;;;;;;;6.43;5.00;;;20.00;57.00;;;;;;5027001;28;20528;-70
2021/06/04 01:14:38;;;;;;;8.75;5.15;;;20.00;57.20;;;;;;5020246;28;20041;-70
2021/06/04 01:17:44;;;;;;;5.53;4.85;;;20.00;57.20;;;;;;5011760;28;20432;-69
2021/06/04 01:20:34;;;;;;;6.13;4.85;;;20.00;57.70;;;;;;5016283;28;20130;-69
2021/06/04 01:23:41;;;;;;;6.68;5.07;;;19.90;57.50;;;;;;4993851;28;20088;-69
2021/06/04 01:26:37;;;;;;;6.70;4.60;;;20.00;57.50;;;;;;4992015;28;20460;-70
2021/06/04 01:29:28;;;;;;;6.10;5.07;;;20.00;57.80;;;;;;5006853;28;20097;-69
2021/06/04 01:32:20;;;;;;;5.90;4.28;;;20.00;57.70;;;;;;5031276;28;20786;-70
2021/06/04 01:35:12;;;;;;;7.95;4.63;;;19.90;57.70;;;;;;5025019;28;20037;-69
2021/06/04 01:37:58;;;;;;;9.18;4.82;;;19.90;57.90;;;;;;5027987;28;20398;-70
2021/06/04 01:40:48;;;;;;;9.85;5.10;;;19.90;57.80;;;;;;4991437;28;20133;-70
2021/06/04 01:43:39;;;;;;;5.30;4.50;;;19.90;57.90;;;;;;5013749;28;20405;-70
2021/06/04 01:46:38;;;;;;;6.38;4.70;;;19.90;58.00;;;;;;4995773;28;20510;-70
2021/06/04 01:49:25;;;;;;;5.47;4.53;;;19.90;58.00;;;;;;5002433;28;20115;-69
2021/06/04 01:52:23;;;;;;;5.70;4.50;;;19.90;57.90;;;;;;5012149;28;20498;-68
2021/06/04 01:55:18;;;;;;;7.90;5.05;;;19.80;57.90;;;;;;5012691;28;20231;-69
2021/06/04 01:58:12;;;;;;;5.50;4.78;;;19.90;58.20;;;;;;5006202;28;20048;-68
2021/06/04 02:01:07;;;;;;;7.25;4.97;;;19.90;58.20;;;;;;5001501;28;20454;-69
2021/06/04 02:03:51;;;;;;;7.20;4.47;;;19.80;58.40;;;;;;5013046;28;20564;-70
2021/06/04 02:06:36;;;;;;;10.77;4.78;;;19.80;58.40;;;;;;5021833;28;20449;-70
2021/06/04 02:09:24;;;;;;;8.13;5.18;;;19.80;58.30;;;;;;5024439;28;20029;-69
2021/06/04 02:12:09;;;;;;;6.30;5.30;;;19.80;58.20;;;;;;5026078;28;20036;-70
2021/06/04 02:14:58;;;;;;;6.43;5.20;;;19.80;58.30;;;;;;5020719;28;20088;-70
2021/06/04 02:18:02;;;;;;;5.65;4.70;;;19.80;58.30;;;;;;5031712;28;20167;-70
2021/06/04 02:21:01;;;;;;;6.22;5.18;;;19.80;58.40;;;;;;5015657;28;20091;-70
2021/06/04 02:24:09;;;;;;;9.65;5.10;;;19.70;58.30;;;;;;5026877;28;20036;-69
2021/06/04 02:27:09;;;;;;;6.85;5.22;;;19.70;58.60;;;;;;5017432;28;20086;-69
2021/06/04 02:30:07;;;;;;;5.53;4.50;;;19.70;58.40;;;;;;5019940;28;20508;-69
2021/06/04 02:32:57;;;;;;;7.32;4.88;;;19.70;58.40;;;;;;5014273;28;20084;-69
2021/06/04 02:36:07;;;;;;;6.38;4.93;;;19.70;58.30;;;;;;5016914;28;20027;-69
2021/06/04 02:39:10;;;;;;;7.90;5.28;;;19.70;58.40;;;;;;5028255;28;20033;-69
2021/06/04 02:42:03;;;;;;;8.07;4.47;;;19.70;58.50;;;;;;5012858;28;20533;-69
2021/06/04 02:44:51;;;;;;;6.05;5.45;;;19.70;58.70;;;;;;5012997;28;20518;-69
2021/06/04 02:47:44;;;;;;;6.50;5.05;;;19.60;58.60;;;;;;5013076;28;20092;-69
2021/06/04 02:50:42;;;;;;;9.43;5.03;;;19.60;58.60;;;;;;5016350;28;20040;-69
2021/06/04 02:53:37;;;;;;;7.47;4.63;;;19.60;58.70;;;;;;4996703;28;20033;-69
2021/06/04 02:56:37;;;;;;;7.57;4.70;;;19.60;58.70;;;;;;5033666;28;20056;-70
2021/06/04 02:59:26;;;;;;;9.40;5.28;;;19.60;58.50;;;;;;5014688;28;20397;-70
2021/06/04 03:02:27;;;;;;;7.75;5.05;;;19.60;58.70;;;;;;5020696;28;20028;-70
2021/06/04 03:05:17;;;;;;;6.72;5.20;;;19.60;58.80;;;;;;5016812;28;20144;-70
2021/06/04 03:08:03;;;;;;;9.20;5.28;;;19.60;58.60;;;;;;5013325;28;20040;-70
2021/06/04 03:10:50;;;;;;;6.70;4.68;;;19.60;58.70;;;;;;5012215;28;20041;-70
2021/06/04 03:13:35;;;;;;;7.55;5.30;;;19.60;58.60;;;;;;5027726;28;20061;-70
2021/06/04 03:16:23;;;;;;;6.32;4.78;;;19.60;58.50;;;;;;5013610;28;20033;-70
2021/06/04 03:19:11;;;;;;;10.75;5.95;;;19.60;58.60;;;;;;4997872;28;20096;-69
2021/06/04 03:22:04;;;;;;;5.80;4.20;;;19.60;58.70;;;;;;5015834;28;20052;-69
2021/06/04 03:24:49;;;;;;;5.80;4.80;;;19.60;58.60;;;;;;5019041;28;20103;-69
2021/06/04 03:27:33;;;;;;;7.30;4.68;;;19.60;58.50;;;;;;5020235;28;20556;-69
2021/06/04 03:30:20;;;;;;;6.83;4.83;;;19.60;58.80;;;;;;5015704;28;20044;-70
2021/06/04 03:33:06;;;;;;;7.60;4.93;;;19.60;58.70;;;;;;5004842;28;20041;-70
2021/06/04 03:35:51;;;;;;;7.55;4.90;;;19.60;58.70;;;;;;5012784;28;20044;-70
2021/06/04 03:38:36;;;;;;;9.50;5.22;;;19.60;58.80;;;;;;5023710;28;20044;-71
2021/06/04 03:41:29;;;;;;;7.57;5.38;;;19.60;58.80;;;;;;5012079;28;20061;-70
2021/06/04 03:44:15;;;;;;;8.02;4.90;;;19.50;58.90;;;;;;5011794;28;20048;-71
2021/06/04 03:46:59;;;;;;;6.95;5.35;;;19.50;58.90;;;;;;5012636;28;20037;-71
2021/06/04 03:49:43;;;;;;;5.53;4.60;;;19.50;59.00;;;;;;4999651;28;20088;-71
2021/06/04 03:52:27;;;;;;;6.33;4.83;;;19.50;59.10;;;;;;5013174;28;20091;-71
2021/06/04 03:55:14;;;;;;;11.05;5.05;;;19.50;59.30;;;;;;5016593;28;20072;-71
2021/06/04 03:57:58;;;;;;;7.00;4.78;;;19.50;59.30;;;;;;5011058;28;20091;-70
2021/06/04 04:00:34;;;;;;;8.63;5.25;;;19.40;59.60;;;;;;5000712;28;20049;-71
2021/06/04 04:03:20;;;;;;;;;;;19.50;59.80;;;;;;5032947;28;20094;-71
2021/06/04 04:06:06;;;;;;;7.63;4.75;;;19.50;59.30;;;;;;5009520;28;19928;-71
2021/06/04 04:08:50;;;;;;;6.28;4.95;;;19.50;59.50;;;;;;5017287;28;20045;-76
2021/06/04 04:11:34;;;;;;;8.02;4.75;;;19.50;59.70;;;;;;5021719;28;20041;-82
2021/06/04 04:14:20;;;;;;;8.98;5.43;;;19.40;59.80;;;;;;5000477;28;20033;-78
2021/06/04 04:17:04;;;;;;;6.75;4.90;;;19.50;59.80;;;;;;5011336;28;20061;-77
2021/06/04 04:19:49;;;;;;;7.80;5.40;;;19.50;60.30;;;;;;5012173;28;20091;-72
2021/06/04 04:22:34;;;;;;;9.90;5.32;;;19.50;60.50;;;;;;5012630;28;20122;-76
2021/06/04 04:25:19;;;;;;;9.15;5.13;;;19.50;60.40;;;;;;5015580;28;20040;-76
2021/06/04 04:28:06;;;;;;;5.65;4.90;;;19.50;60.20;;;;;;5011692;28;20037;-77
2021/06/04 04:30:50;;;;;;;9.07;5.07;;;19.50;60.60;;;;;;5022536;28;20039;-78
2021/06/04 04:33:35;;;;;;;8.18;4.85;;;19.50;60.60;;;;;;5006900;28;20045;-76
2021/06/04 04:36:22;;;;;;;8.00;4.70;;;19.50;60.70;;;;;;5011840;28;20064;-80
2021/06/04 04:39:09;;;;;;;11.25;5.57;;;19.50;61.00;;;;;;5006587;28;20060;-83
2021/06/04 04:41:54;;;;;;;7.10;4.65;;;19.50;60.80;;;;;;5018832;28;20088;-74
2021/06/04 04:44:40;;;;;;;8.70;4.90;;;19.60;61.10;;;;;;5010241;28;20048;-78
2021/06/04 04:47:25;;;;;;;10.77;5.43;;;19.50;61.20;;;;;;4996750;28;20077;-78
2021/06/04 04:50:10;;;;;;;8.98;6.18;;;19.50;61.50;;;;;;5008512;28;20044;-77
2021/06/04 04:52:55;;;;;;;7.47;5.10;;;19.50;61.80;;;;;;4997001;28;20516;-78
2021/06/04 04:55:40;;;;;;;;;;;19.50;62.10;;;;;;4994872;28;20036;-78
2021/06/04 04:58:24;;;;;;;6.97;5.00;;;19.50;61.30;;;;;;5002494;28;19916;-79
2021/06/04 05:01:09;;;;;;;7.68;5.22;;;19.50;61.80;;;;;;4992946;28;20434;-78
2021/06/04 05:03:54;;;;;;;10.82;5.90;;;19.50;62.00;;;;;;5005963;28;20409;-79
2021/06/04 05:06:37;;;;;;;7.60;5.20;;;19.50;62.10;;;;;;4992732;28;20402;-79
2021/06/04 05:09:22;;;;;;;7.78;5.20;;;19.50;62.30;;;;;;5009103;28;20121;-79
2021/06/04 05:12:06;;;;;;;9.00;5.30;;;19.50;62.50;;;;;;5012328;28;20386;-79
2021/06/04 05:14:50;;;;;;;;;;;19.60;62.50;;;;;;5011021;28;20041;-79
2021/06/04 05:17:35;;;;;;;7.82;5.78;;;19.60;62.00;;;;;;5005869;28;19928;-79
2021/06/04 05:20:21;;;;;;;8.35;4.93;;;19.60;62.20;;;;;;5007135;28;20057;-79
2021/06/04 05:23:06;;;;;;;6.10;4.82;;;19.60;62.80;;;;;;5018298;28;20032;-79
2021/06/04 05:25:51;;;;;;;7.78;5.38;;;19.60;62.80;;;;;;5012067;28;20040;-80
2021/06/04 05:28:35;;;;;;;;;;;19.60;62.80;;;;;;5007958;28;20444;-79
2021/06/04 05:31:20;;;;;;;11.65;5.82;;;19.60;62.70;;;;;;5010561;28;20380;-79
2021/06/04 05:34:05;;;;;;;11.95;6.18;;;19.60;63.90;;;;;;5023419;28;20106;-77
2021/06/04 05:36:49;;;;;;;12.48;6.47;;;19.60;65.20;;;;;;5017621;28;20588;-76
2021/06/04 05:39:33;;;;;;;13.50;6.23;;;19.60;66.40;;;;;;5024050;28;20056;-76
2021/06/04 05:42:17;;;;;;;11.40;5.78;;;19.50;67.50;;;;;;5019629;28;20704;-76
2021/06/04 05:45:02;;;;;;;10.67;6.97;;;19.40;68.50;;;;;;5014546;28;20128;-75
2021/06/04 05:47:46;;;;;;;;;;;19.40;69.40;;;;;;5002904;28;20042;-74
2021/06/04 05:50:36;;;;;;;10.80;6.60;;;19.40;67.90;;;;;;5012414;28;19955;-74
2021/06/04 05:53:27;;;;;;;11.23;5.90;;;19.30;70.00;;;;;;5015119;28;20057;-75
2021/06/04 05:56:13;;;;;;;8.32;6.40;;;19.30;70.40;;;;;;5000036;28;20045;-74
2021/06/04 05:58:57;;;;;;;9.85;6.60;;;19.30;71.50;;;;;;5014932;28;20048;-75
2021/06/04 06:01:43;;;;;;;8.35;6.20;;;19.20;71.90;;;;;;5023052;28;20112;-73
2021/06/04 06:04:28;;;;;;;9.27;6.35;;;19.20;72.00;;;;;;5013039;28;20409;-73
2021/06/04 06:07:12;;;;;;;9.13;6.30;;;19.10;72.30;;;;;;5033938;28;20036;-73
2021/06/04 06:09:56;;;;;;;11.52;7.35;;;19.10;72.30;;;;;;5021590;28;20069;-73
2021/06/04 06:12:40;;;;;;;9.10;6.32;;;19.00;72.90;;;;;;5034029;28;20068;-73
2021/06/04 06:15:27;;;;;;;10.73;7.05;;;19.00;73.30;;;;;;5011696;28;20052;-73
2021/06/04 06:18:12;;;;;;;9.57;6.72;;;19.00;73.70;;;;;;5006894;28;20104;-73
2021/06/04 06:20:57;;;;;;;9.95;6.70;;;19.00;73.40;;;;;;5021442;28;20044;-75
2021/06/04 06:23:42;;;;;;;8.55;6.72;;;19.00;73.70;;;;;;5025804;28;20532;-73
2021/06/04 06:26:30;;;;;;;10.02;7.38;;;19.00;74.40;;;;;;5015172;28;20564;-73
2021/06/04 06:29:16;;;;;;;12.15;7.07;;;19.00;74.90;;;;;;5019020;28;20561;-74
2021/06/04 06:32:00;;;;;;;8.55;7.15;;;19.00;75.90;;;;;;5021319;28;20080;-74
2021/06/04 06:34:44;;;;;;;12.13;7.13;;;19.00;75.60;;;;;;4999178;28;20040;-74
2021/06/04 06:37:28;;;;;;;9.20;7.23;;;19.00;75.30;;;;;;5005018;28;20040;-74
2021/06/04 06:40:13;;;;;;;9.68;6.53;;;19.00;75.40;;;;;;5015940;28;20068;-76
2021/06/04 06:42:57;;;;;;;9.47;7.07;;;19.00;76.40;;;;;;5025284;28;20113;-74
2021/06/04 06:45:42;;;;;;;8.93;6.82;;;19.00;75.60;;;;;;5020863;28;20056;-74
2021/06/04 06:48:26;;;;;;;;;;;19.00;75.90;;;;;;5014233;28;20045;-74
2021/06/04 06:51:11;;;;;;;10.13;6.45;;;19.10;75.20;;;;;;5019752;28;19972;-75
2021/06/04 06:53:56;;;;;;;10.23;6.20;;;19.00;75.50;;;;;;5013356;28;20030;-76
2021/06/04 06:56:41;;;;;;;10.88;7.35;;;19.10;75.80;;;;;;5010932;28;20045;-76
2021/06/04 06:59:29;;;;;;;9.13;6.60;;;19.10;76.00;;;;;;5013775;28;20085;-77
2021/06/04 07:02:14;;;;;;;20.85;7.05;;;19.20;76.20;;;;;;5008700;28;20076;-75
2021/06/04 07:04:58;;;;;;;8.10;6.78;;;19.20;76.20;;;;;;5007029;28;20181;-75
2021/06/04 07:07:42;;;;;;;9.80;6.87;;;19.30;75.90;;;;;;5005412;28;20126;-76
2021/06/04 07:10:29;;;;;;;13.85;6.43;;;19.30;75.60;;;;;;5011539;28;20379;-76
2021/06/04 07:13:16;;;;;;;10.70;6.43;;;19.30;75.60;;;;;;5003650;28;20095;-77
2021/06/04 07:16:04;;;;;;;8.13;6.15;;;19.30;75.60;;;;;;5000104;28;20036;-77
2021/06/04 07:18:52;;;;;;;8.75;6.97;;;19.30;75.10;;;;;;5014128;28;20040;-77
2021/06/04 07:21:38;;;;;;;9.30;6.70;;;19.40;74.50;;;;;;5015245;28;20092;-77
2021/06/04 07:24:23;;;;;;;9.85;6.63;;;19.40;74.30;;;;;;4998779;28;20040;-78
2021/06/04 07:27:07;;;;;;;11.85;6.90;;;19.50;74.50;;;;;;5006609;28;20033;-77
2021/06/04 07:29:51;;;;;;;13.05;6.00;;;19.50;74.60;;;;;;5006805;28;20045;-78
2021/06/04 07:32:35;;;;;;;9.68;6.40;;;19.60;74.00;;;;;;5007553;28;20157;-78
2021/06/04 07:35:21;;;;;;;8.37;6.53;;;19.60;73.80;;;;;;5006040;28;20041;-76
2021/06/04 07:38:06;;;;;;;9.85;6.55;;;19.60;73.70;;;;;;5005600;28;20402;-75
2021/06/04 07:40:51;;;;;;;12.25;7.13;;;19.60;73.80;;;;;;5013871;28;20080;-74
2021/06/04 07:43:39;;;;;;;;;;;19.60;73.90;;;;;;5012947;28;20029;-75
2021/06/04 07:46:25;;;;;;;10.07;6.68;;;19.60;73.50;;;;;;5002455;28;19916;-74
2021/06/04 07:49:09;;;;;;;10.07;6.93;;;19.60;74.70;;;;;;4997422;28;20089;-77
2021/06/04 07:51:56;;;;;;;10.60;6.13;;;19.60;74.10;;;;;;5011944;28;20107;-77
2021/06/04 07:54:41;;;;;;;9.30;6.65;;;19.60;74.70;;;;;;5008939;28;20149;-73
2021/06/04 07:57:26;;;;;;;11.18;7.05;;;19.70;74.20;;;;;;4996383;28;20513;-72
2021/06/04 08:00:19;;;;;;;11.85;6.82;;;19.80;74.40;;;;;;5005262;28;20121;-73
2021/06/04 08:03:06;;;;;;;12.82;5.90;;;19.70;73.90;;;;;;5005311;28;20115;-77
2021/06/04 08:05:51;;;;;;;9.02;6.07;;;19.70;74.40;;;;;;5007427;28;20449;-77
2021/06/04 08:08:37;;;;;;;11.00;6.80;;;19.80;74.50;;;;;;5006607;28;20765;-77
2021/06/04 08:11:25;;;;;;;12.48;6.90;;;19.80;75.00;;;;;;5013140;28;20064;-77
2021/06/04 08:14:12;;;;;;;8.75;6.30;;;19.90;74.40;;;;;;5009490;28;20541;-77
2021/06/04 08:16:58;;;;;;;7.38;6.30;;;19.90;75.10;;;;;;5012840;28;20056;-76
2021/06/04 08:19:42;;;;;;;9.10;6.45;;;20.00;75.30;;;;;;5009003;28;20040;-76
2021/06/04 08:22:26;;;;;;;8.32;6.10;;;20.10;75.00;;;;;;5006068;28;20087;-76
2021/06/04 08:25:12;;;;;;;9.55;5.95;;;20.10;75.20;;;;;;5012710;28;20033;-75
2021/06/04 08:27:56;;;;;;;14.55;6.80;;;20.20;74.60;;;;;;5012346;28;20560;-75
2021/06/04 08:30:41;;;;;;;9.57;6.20;;;20.20;74.70;;;;;;5012360;28;20040;-75
2021/06/04 08:33:28;;;;;;;10.77;6.43;;;20.20;74.80;;;;;;5009443;28;20029;-76
2021/06/04 08:36:17;;;;;;;9.63;6.75;;;20.20;74.90;;;;;;5012390;28;20509;-75
2021/06/04 08:39:07;;;;;;;8.23;6.13;;;20.30;74.90;;;;;;5012241;28;20036;-76
2021/06/04 08:41:54;;;;;;;9.98;6.63;;;20.30;74.70;;;;;;5012354;28;20037;-76
2021/06/04 08:45:22;;;;;;;8.75;6.05;;;20.40;75.10;;;;;;5012324;28;20070;-77
2021/06/04 08:48:21;;;;;;;8.50;5.95;;;20.40;74.60;;;;;;5010769;28;20029;-76
2021/06/04 08:51:20;;;;;;;9.00;6.10;;;20.40;75.00;;;;;;5011956;28;20037;-75
2021/06/04 08:54:30;;;;;;;11.60;6.28;;;20.50;75.10;;;;;;5011864;28;20429;-75
2021/06/04 08:57:31;;;;;;;8.70;5.97;;;20.50;74.90;;;;;;5012177;28;20083;-69
2021/06/04 09:00:31;;;;;;;9.18;6.05;;;20.50;74.60;;;;;;5011331;28;20045;-69
2021/06/04 09:03:20;;;;;;;9.52;7.13;;;20.50;74.70;;;;;;5011229;28;20568;-69
2021/06/04 09:06:27;;;;;;;12.70;6.35;;;20.50;74.80;;;;;;5011669;28;20118;-69
2021/06/04 09:09:51;;;;;;;9.65;6.75;;;20.50;74.30;;;;;;5002586;28;20093;-69
2021/06/04 09:13:12;;;;;;;9.68;5.90;;;20.50;74.60;;;;;;5011533;28;20053;-69
2021/06/04 09:16:08;;;;;;;8.43;6.38;;;20.40;75.00;;;;;;5007723;28;20033;-70
2021/06/04 09:18:42;;;;;;;9.23;6.53;;;20.40;74.80;;;;;;5000077;28;20035;-70
2021/06/04 09:21:14;;;;;;;8.52;6.93;;;20.40;75.00;;;;;;4992715;28;20038;-69
2021/06/04 09:23:43;;;;;;;13.90;6.68;;;20.40;75.00;;;;;;5002709;28;20034;-69
2021/06/04 09:26:11;;;;;;;11.35;6.85;;;20.40;74.90;;;;;;5012544;28;20054;-70
2021/06/04 09:28:39;;;;;;;12.00;6.50;;;20.50;75.10;;;;;;5011028;28;20180;-70
2021/06/04 09:31:24;;;;;;;10.55;6.85;;;20.50;75.20;;;;;;5009716;28;20111;-70
2021/06/04 09:33:54;;;;;;;9.60;6.13;;;20.40;75.20;;;;;;5011143;28;20092;-70
2021/06/04 09:36:46;;;;;;;8.70;6.30;;;20.50;75.30;;;;;;5011534;28;20034;-70
2021/06/04 09:39:43;;;;;;;11.85;6.50;;;20.40;75.60;;;;;;5008213;28;20041;-70
2021/06/04 09:42:33;;;;;;;8.65;6.60;;;20.40;75.50;;;;;;5003059;28;20025;-70
2021/06/04 09:45:37;;;;;;;9.77;6.43;;;20.40;75.40;;;;;;5011263;28;20024;-70
2021/06/04 09:48:42;;;;;;;15.80;7.05;;;20.40;76.00;;;;;;4998075;28;20034;-70
2021/06/04 09:51:32;;;;;;;10.20;6.47;;;20.40;75.60;;;;;;5004906;28;20037;-70
2021/06/04 09:54:23;;;;;;;12.50;6.38;;;20.40;75.40;;;;;;5011093;28;20483;-70
2021/06/04 09:57:18;;;;;;;13.80;6.75;;;20.40;75.70;;;;;;5008092;28;20133;-70
2021/06/04 10:00:24;;;;;;;11.70;6.95;;;20.50;75.90;;;;;;5010108;28;20080;-69
2021/06/04 10:03:40;;;;;;;11.52;6.70;;;20.50;75.90;;;;;;5008777;28;20045;-70
2021/06/04 10:06:32;;;;;;;9.35;6.40;;;20.60;75.70;;;;;;5006527;28;20552;-70
2021/06/04 10:09:43;;;;;;;10.60;6.88;;;20.60;76.10;;;;;;5007188;28;20076;-69
2021/06/04 10:12:34;;;;;;;8.95;6.28;;;20.70;75.90;;;;;;5009985;28;20041;-70
2021/06/04 10:15:23;;;;;;;11.27;6.43;;;20.80;75.80;;;;;;5008787;28;20444;-70
2021/06/04 10:18:32;;;;;;;8.25;6.40;;;20.80;75.80;;;;;;5013092;28;20434;-70
2021/06/04 10:21:27;;;;;;;10.77;6.38;;;20.90;75.40;;;;;;5004008;28;20173;-70
2021/06/04 10:24:41;;;;;;;;;;;20.90;75.20;;;;;;5013662;28;20087;-69
2021/06/04 10:27:25;;;;;;;10.80;6.80;;;20.90;74.80;;;;;;5012146;28;19917;-69
2021/06/04 10:30:25;;;;;;;7.72;5.78;;;20.90;74.70;;;;;;5013323;28;20069;-70
2021/06/04 10:33:18;;;;;;;9.20;6.35;;;20.90;75.00;;;;;;5010434;28;20113;-70
2021/06/04 10:36:04;;;;;;;10.02;6.75;;;20.90;74.70;;;;;;5014473;28;20565;-70
2021/06/04 10:38:53;;;;;;;9.00;5.97;;;20.90;75.00;;;;;;5013596;28;20045;-69
2021/06/04 10:42:06;;;;;;;8.85;7.00;;;21.00;75.00;;;;;;5008044;28;20084;-70
2021/06/04 10:45:40;;;;;;;9.50;5.90;;;21.10;74.90;;;;;;4994762;28;20089;-72
2021/06/04 10:49:02;;;;;;;10.30;6.78;;;21.20;74.80;;;;;;5011175;28;20032;-76
2021/06/04 10:51:57;;;;;;;8.85;6.10;;;21.40;74.60;;;;;;5012987;28;20037;-76
2021/06/04 10:55:21;;;;;;;5.93;5.13;;;21.50;73.90;;;;;;5009468;28;20036;-77
2021/06/04 10:58:43;;;;;;;9.38;5.95;;;21.60;74.20;;;;;;5009300;28;20679;-76
2021/06/04 11:01:40;;;;;;;8.32;5.85;;;21.70;73.90;;;;;;5010168;28;20426;-75
2021/06/04 11:04:45;;;;;;;9.75;6.03;;;21.90;74.00;;;;;;5008891;28;20053;-75
2021/06/04 11:08:01;;;;;;;6.20;5.07;;;22.00;72.40;;;;;;5015761;28;20041;-76
2021/06/04 11:11:04;;;;;;;9.60;5.13;;;22.10;72.70;;;;;;5008090;28;20080;-76
2021/06/04 11:14:17;;;;;;;6.63;4.78;;;22.30;71.90;;;;;;5013367;28;20084;-76
2021/06/04 11:17:21;;;;;;;6.80;4.68;;;22.40;71.30;;;;;;5006222;28;20164;-77
2021/06/04 11:20:22;;;;;;;6.95;4.45;;;22.60;71.00;;;;;;5014108;28;20049;-77
2021/06/04 11:23:11;;;;;;;8.55;4.82;;;22.80;71.30;;;;;;5012593;28;20048;-76
2021/06/04 11:26:11;;;;;;;7.07;4.65;;;22.90;69.50;;;;;;5009120;28;20560;-75
2021/06/04 11:29:01;;;;;;;7.47;4.50;;;23.10;69.50;;;;;;5014967;28;20037;-74
2021/06/04 11:32:07;;;;;;;7.90;4.95;;;23.30;69.30;;;;;;5021099;28;20125;-74
2021/06/04 11:34:54;;;;;;;;;;;23.60;68.50;;;;;;5009522;28;20077;-74
2021/06/04 11:37:29;;;;;;;8.73;4.43;;;23.80;69.00;;;;;;5012486;28;19932;-73
2021/06/04 11:40:29;;;;;;;8.40;4.47;;;24.00;67.80;;;;;;5011391;28;20052;-74
2021/06/04 11:43:13;;;;;;;7.88;4.18;;;24.30;66.70;;;;;;5011978;28;20115;-71
2021/06/04 11:46:18;;;;;;;5.43;4.25;;;24.60;65.40;;;;;;5001276;28;20076;-74
2021/06/04 11:49:14;;;;;;;5.20;4.40;;;24.70;62.70;;;;;;5008395;28;20040;-75
2021/06/04 11:52:19;;;;;;;9.27;5.57;;;24.70;63.30;;;;;;5005713;28;20077;-75
2021/06/04 11:55:23;;;;;;;11.88;5.20;;;24.90;62.80;;;;;;5011870;28;20044;-75
2021/06/04 11:58:28;;;;;;;6.78;4.85;;;24.90;62.00;;;;;;5009382;28;20033;-75
2021/06/04 12:01:22;;;;;;;6.47;4.55;;;25.10;60.60;;;;;;5006766;28;20068;-74
2021/06/04 12:04:18;;;;;;;5.55;4.95;;;25.10;60.50;;;;;;5006440;28;20088;-73
2021/06/04 12:07:24;;;;;;;7.95;5.55;;;25.20;60.80;;;;;;5000716;28;20501;-72
2021/06/04 12:10:12;;;;;;;7.15;5.05;;;25.30;60.60;;;;;;5009566;28;20091;-72
2021/06/04 12:12:57;;;;;;;6.90;5.68;;;25.30;60.10;;;;;;5009759;28;20056;-72
2021/06/04 12:15:43;;;;;;;6.13;5.25;;;25.40;59.60;;;;;;5006226;28;20045;-76
2021/06/04 12:18:35;;;;;;;5.63;5.03;;;25.40;59.30;;;;;;5003395;28;20534;-75
2021/06/04 12:21:50;;;;;;;6.90;4.60;;;25.30;58.50;;;;;;5005881;28;20152;-75
2021/06/04 12:24:35;;;;;;;7.10;5.13;;;25.40;59.10;;;;;;5003427;28;20512;-74
2021/06/04 12:27:19;;;;;;;7.10;5.32;;;25.50;58.90;;;;;;4996658;28;20041;-74
2021/06/04 12:30:04;;;;;;;11.90;6.43;;;25.50;59.30;;;;;;5010588;28;20048;-74
2021/06/04 12:32:48;;;;;;;8.73;5.60;;;25.60;59.10;;;;;;5000474;28;20548;-73
2021/06/04 12:35:41;;;;;;;8.75;5.00;;;25.70;58.30;;;;;;5006739;28;20509;-73
2021/06/04 12:38:36;;;;;;;8.95;5.03;;;25.90;58.20;;;;;;4993898;28;20243;-73
2021/06/04 12:41:24;;;;;;;8.68;5.85;;;26.00;57.80;;;;;;4997793;28;20513;-73
2021/06/04 12:44:11;;;;;;;7.32;4.90;;;26.00;56.50;;;;;;5002908;28;20040;-73
2021/06/04 12:46:56;;;;;;;6.97;4.68;;;26.10;56.30;;;;;;4999498;28;20036;-74
2021/06/04 12:49:40;;;;;;;7.97;4.93;;;26.20;56.70;;;;;;4999254;28;20040;-74
2021/06/04 12:52:24;;;;;;;7.00;4.70;;;26.30;56.10;;;;;;5010840;28;20037;-73
2021/06/04 12:55:16;;;;;;;7.53;4.78;;;26.30;54.90;;;;;;5006117;28;20044;-72
2021/06/04 12:58:29;;;;;;;6.68;5.05;;;26.30;55.80;;;;;;5009636;28;20091;-73
2021/06/04 13:01:22;;;;;;;8.65;5.13;;;26.30;55.30;;;;;;5004367;28;20076;-71
2021/06/04 13:04:14;;;;;;;8.05;4.80;;;26.30;55.20;;;;;;5007006;28;20560;-72
2021/06/04 13:07:02;;;;;;;9.38;4.97;;;26.30;55.50;;;;;;5000924;28;20119;-73
2021/06/04 13:10:21;;;;;;;8.25;5.13;;;26.20;54.80;;;;;;4997493;28;20048;-73
2021/06/04 13:13:08;;;;;;;6.03;4.95;;;26.10;54.50;;;;;;5002028;28;20106;-71
2021/06/04 13:15:54;;;;;;;6.78;4.90;;;26.00;54.80;;;;;;5010461;28;20061;-72
2021/06/04 13:18:39;;;;;;;6.80;5.07;;;25.90;54.60;;;;;;5005695;28;20446;-70
2021/06/04 13:21:29;;;;;;;7.47;5.35;;;25.90;54.70;;;;;;4993701;28;20449;-71
2021/06/04 13:24:15;;;;;;;5.70;5.13;;;25.70;54.90;;;;;;5005144;28;20437;-72
2021/06/04 13:27:00;;;;;;;7.45;5.80;;;25.70;55.60;;;;;;5005386;28;20076;-71
2021/06/04 13:29:52;;;;;;;6.72;5.28;;;25.60;55.80;;;;;;4991825;28;20073;-71
2021/06/04 13:32:50;;;;;;;6.20;5.60;;;25.60;56.00;;;;;;4999283;28;20088;-71
2021/06/04 13:35:45;;;;;;;7.65;5.15;;;25.50;55.80;;;;;;4995038;28;20037;-71
2021/06/04 13:38:44;;;;;;;10.75;5.13;;;25.40;56.40;;;;;;5003596;28;20466;-72
2021/06/04 13:41:30;;;;;;;6.55;5.18;;;25.60;55.70;;;;;;5015911;28;20052;-72
2021/06/04 13:44:19;;;;;;;8.07;4.93;;;25.60;55.80;;;;;;4997474;28;20068;-71
2021/06/04 13:47:10;;;;;;;7.53;4.70;;;25.70;55.80;;;;;;5009707;28;20037;-71
2021/06/04 13:49:54;;;;;;;6.65;5.53;;;25.80;55.90;;;;;;5003675;28;20141;-71
2021/06/04 13:52:38;;;;;;;7.03;5.75;;;25.90;55.40;;;;;;5009978;28;20048;-72
2021/06/04 13:55:23;;;;;;;8.77;5.32;;;25.90;54.90;;;;;;5008180;28;20468;-73
2021/06/04 13:58:19;;;;;;;;;;;26.00;55.30;;;;;;5013841;28;20108;-72
2021/06/04 14:01:20;;;;;;;8.35;5.80;;;26.00;55.20;;;;;;5003259;28;19944;-72
2021/06/04 14:04:21;;;;;;;7.35;5.40;;;26.00;55.30;;;;;;5020761;28;20122;-73
2021/06/04 14:07:23;;;;;;;6.40;5.20;;;25.90;55.10;;;;;;5013713;28;20549;-72
2021/06/04 14:10:35;;;;;;;7.60;5.35;;;25.90;55.50;;;;;;5010114;28;20127;-72
2021/06/04 14:13:23;;;;;;;7.03;5.40;;;25.80;55.40;;;;;;5017294;28;20044;-72
2021/06/04 14:16:07;;;;;;;5.75;4.82;;;25.80;55.60;;;;;;4996019;28;20553;-72
2021/06/04 14:18:52;;;;;;;;;;;25.90;55.60;;;;;;5016880;28;20398;-73
2021/06/04 14:21:40;;;;;;;7.53;5.35;;;25.90;55.50;;;;;;5012981;28;19997;-73
2021/06/04 14:24:32;;;;;;;7.95;5.22;;;25.90;55.40;;;;;;4994023;28;20037;-73
2021/06/04 14:27:36;;;;;;;7.32;4.95;;;26.00;55.50;;;;;;5010014;28;20430;-72
2021/06/04 14:30:34;;;;;;;7.53;4.82;;;26.00;55.20;;;;;;5007244;28;20106;-73
2021/06/04 14:33:25;;;;;;;6.88;5.15;;;26.10;54.90;;;;;;5006699;28;20544;-73
2021/06/04 14:36:14;;;;;;;7.78;5.25;;;26.20;55.30;;;;;;5007101;28;20570;-72
2021/06/04 14:39:27;;;;;;;8.73;5.15;;;26.20;54.60;;;;;;4992730;28;20096;-69
2021/06/04 14:42:15;;;;;;;6.53;4.97;;;26.20;54.30;;;;;;4994670;28;20050;-72
2021/06/04 14:44:59;;;;;;;6.53;4.72;;;26.30;54.30;;;;;;5002894;28;20080;-72
2021/06/04 14:47:44;;;;;;;7.18;5.07;;;26.30;54.10;;;;;;5000200;28;22003;-72
2021/06/04 14:50:31;;;;;;;9.32;6.53;;;26.30;54.10;;;;;;4996225;28;20057;-72